Time;durP1;ratioP1;P1;durP2;ratioP2;P2;SDS_P1;SDS_P2;PMS_P1;PMS_P2;Temp;Humidity;BMP_temperature;BMP_pressure;BME280_temperature;BME280_humidity;BME280_pressure;Samples;Min_cycle;Max_cycle;Signal;HPM_P1;HPM_P2
2023/10/03 00:00:22;;;;;;;12.45;9.80;;;;;;;;;;5114286;28;20294;-83
2023/10/03 00:02:52;;;;;;;12.90;9.48;;;;;;;;;;5113792;28;20903;-83
2023/10/03 00:05:22;;;;;;;12.23;10.07;;;;;;;;;;5114534;28;20334;-83
2023/10/03 00:07:49;;;;;;;14.18;10.05;;;;;;;;;;5114187;28;20231;-83
2023/10/03 00:10:18;;;;;;;12.13;9.48;;;;;;;;;;5114137;28;20289;-82
2023/10/03 00:12:48;;;;;;;12.27;9.85;;;;;;;;;;5114147;28;20250;-81
2023/10/03 00:15:16;;;;;;;12.52;9.82;;;;;;;;;;5113707;28;20238;-83
2023/10/03 00:17:44;;;;;;;14.70;10.85;;;;;;;;;;5114229;28;20197;-83
2023/10/03 00:20:12;;;;;;;14.50;9.65;;;;;;;;;;5114436;28;20254;-83
2023/10/03 00:22:40;;;;;;;13.77;10.18;;;;;;;;;;5113987;28;20565;-83
2023/10/03 00:25:09;;;;;;;12.18;9.18;;;;;;;;;;5113741;28;20277;-83
2023/10/03 00:27:37;;;;;;;13.20;9.40;;;;;;;;;;5113907;28;20209;-83
2023/10/03 00:30:10;;;;;;;15.60;10.10;;;;;;;;;;5113941;28;20673;-83
2023/10/03 00:32:37;;;;;;;15.38;10.05;;;;;;;;;;5113777;28;20201;-83
2023/10/03 00:35:05;;;;;;;11.80;9.48;;;;;;;;;;5113737;28;20624;-81
2023/10/03 00:37:32;;;;;;;13.70;10.27;;;;;;;;;;5113513;28;20850;-83
2023/10/03 00:40:00;;;;;;;14.48;10.40;;;;;;;;;;5113725;28;20200;-82
2023/10/03 00:42:27;;;;;;;15.60;10.30;;;;;;;;;;5113955;28;20828;-83
2023/10/03 00:44:56;;;;;;;15.32;10.27;;;;;;;;;;5113530;28;20678;-83
2023/10/03 00:47:23;;;;;;;13.40;9.13;;;;;;;;;;5113590;28;20216;-83
2023/10/03 00:49:51;;;;;;;14.13;9.50;;;;;;;;;;5113430;28;20693;-82
2023/10/03 00:52:18;;;;;;;14.40;10.07;;;;;;;;;;5112884;28;20198;-83
2023/10/03 00:54:46;;;;;;;16.70;10.20;;;;;;;;;;5113233;28;20726;-83
2023/10/03 00:57:15;;;;;;;16.88;10.43;;;;;;;;;;5113315;28;20190;-83
2023/10/03 00:59:42;;;;;;;15.32;10.25;;;;;;;;;;5113250;28;20205;-83
2023/10/03 01:02:10;;;;;;;16.00;10.18;;;;;;;;;;5113273;28;20618;-83
2023/10/03 01:04:40;;;;;;;12.98;9.35;;;;;;;;;;5113852;28;20202;-83
2023/10/03 01:07:08;;;;;;;17.25;10.30;;;;;;;;;;5113141;28;20194;-83
2023/10/03 01:09:35;;;;;;;18.85;10.32;;;;;;;;;;5113137;28;20312;-83
2023/10/03 01:12:02;;;;;;;14.55;10.52;;;;;;;;;;5113094;28;20197;-84
2023/10/03 01:14:30;;;;;;;17.88;9.68;;;;;;;;;;5113546;28;20672;-83
2023/10/03 01:16:57;;;;;;;14.73;9.75;;;;;;;;;;5113337;28;20234;-83
2023/10/03 01:19:29;;;;;;;16.20;10.20;;;;;;;;;;5112742;28;20592;-83
2023/10/03 01:21:57;;;;;;;13.80;10.00;;;;;;;;;;5112754;28;20232;-83
2023/10/03 01:24:24;;;;;;;18.55;10.10;;;;;;;;;;5113319;28;20663;-83
2023/10/03 01:26:53;;;;;;;14.65;9.85;;;;;;;;;;5112902;28;20205;-83
2023/10/03 01:29:20;;;;;;;15.45;10.35;;;;;;;;;;5112749;28;20226;-83
2023/10/03 01:31:48;;;;;;;15.15;10.80;;;;;;;;;;5112930;28;20682;-83
2023/10/03 01:34:16;;;;;;;18.58;11.32;;;;;;;;;;5112282;28;20298;-82
2023/10/03 01:36:45;;;;;;;19.65;10.95;;;;;;;;;;5112807;28;20214;-84
2023/10/03 01:39:13;;;;;;;16.33;10.68;;;;;;;;;;5112772;28;20277;-83
2023/10/03 01:41:42;;;;;;;16.70;10.60;;;;;;;;;;5112119;28;20258;-84
2023/10/03 01:44:09;;;;;;;17.80;11.02;;;;;;;;;;5112586;28;20201;-84
2023/10/03 01:46:38;;;;;;;16.15;11.05;;;;;;;;;;5112729;28;20197;-84
2023/10/03 01:49:06;;;;;;;16.95;11.45;;;;;;;;;;5112669;28;20229;-84
2023/10/03 01:51:33;;;;;;;19.90;11.20;;;;;;;;;;5112019;28;20198;-84
2023/10/03 01:54:00;;;;;;;16.52;11.20;;;;;;;;;;5112411;28;20228;-85
2023/10/03 01:56:29;;;;;;;19.63;11.43;;;;;;;;;;5112774;28;20289;-84
2023/10/03 01:58:59;;;;;;;17.30;11.20;;;;;;;;;;5111989;28;20198;-84
2023/10/03 02:01:28;;;;;;;15.68;11.10;;;;;;;;;;5112179;28;20210;-84
2023/10/03 02:03:55;;;;;;;17.25;10.90;;;;;;;;;;5112021;28;20670;-84
2023/10/03 02:06:23;;;;;;;14.75;10.35;;;;;;;;;;5111974;28;20615;-84
2023/10/03 02:08:50;;;;;;;14.60;10.88;;;;;;;;;;5112462;28;20217;-84
2023/10/03 02:11:19;;;;;;;17.35;10.85;;;;;;;;;;5111895;28;20200;-83
2023/10/03 02:13:48;;;;;;;16.92;11.27;;;;;;;;;;5112038;28;20201;-84
2023/10/03 02:16:17;;;;;;;17.35;10.82;;;;;;;;;;5112078;28;20261;-84
2023/10/03 02:18:44;;;;;;;14.75;9.95;;;;;;;;;;5111999;28;20578;-84
2023/10/03 02:21:17;;;;;;;16.27;9.88;;;;;;;;;;5111741;28;20229;-83
2023/10/03 02:23:47;;;;;;;15.00;9.93;;;;;;;;;;5111446;28;20787;-84
2023/10/03 02:26:16;;;;;;;14.27;10.07;;;;;;;;;;5111736;28;20202;-84
2023/10/03 02:28:43;;;;;;;20.13;10.18;;;;;;;;;;5111790;28;20233;-85
2023/10/03 02:31:11;;;;;;;12.68;9.70;;;;;;;;;;5112212;28;20222;-84
2023/10/03 02:33:41;;;;;;;15.88;9.88;;;;;;;;;;5111778;28;20658;-84
2023/10/03 02:36:09;;;;;;;14.30;9.05;;;;;;;;;;5111915;28;20212;-84
2023/10/03 02:38:37;;;;;;;14.35;9.05;;;;;;;;;;5111806;28;20287;-84
2023/10/03 02:41:06;;;;;;;13.25;8.98;;;;;;;;;;5112111;28;20244;-84
2023/10/03 02:43:34;;;;;;;12.77;8.38;;;;;;;;;;5111740;28;20645;-84
2023/10/03 02:46:04;;;;;;;13.45;9.98;;;;;;;;;;5106274;28;20281;-84
2023/10/03 02:48:31;;;;;;;12.27;9.05;;;;;;;;;;5102399;28;20221;-85
2023/10/03 02:51:02;;;;;;;14.45;8.55;;;;;;;;;;5111717;28;20278;-84
2023/10/03 02:53:29;;;;;;;13.07;8.30;;;;;;;;;;5111357;28;20646;-84
2023/10/03 02:55:56;;;;;;;13.20;8.30;;;;;;;;;;5111407;28;20189;-84
2023/10/03 02:58:23;;;;;;;13.80;8.32;;;;;;;;;;5111616;28;20242;-84
2023/10/03 03:00:54;;;;;;;11.40;8.75;;;;;;;;;;5111289;28;20194;-84
2023/10/03 03:03:23;;;;;;;13.32;8.60;;;;;;;;;;5111352;28;20627;-83
2023/10/03 03:05:50;;;;;;;13.88;8.40;;;;;;;;;;5111711;28;20540;-84
2023/10/03 03:08:28;;;;;;;15.15;8.38;;;;;;;;;;5111468;28;20202;-83
2023/10/03 03:10:56;;;;;;;14.23;8.50;;;;;;;;;;5111352;28;20204;-83
2023/10/03 03:13:24;;;;;;;11.85;8.18;;;;;;;;;;5111541;28;20731;-84
2023/10/03 03:15:59;;;;;;;11.90;8.55;;;;;;;;;;5111648;28;20234;-84
2023/10/03 03:18:27;;;;;;;12.05;7.53;;;;;;;;;;5111044;28;20212;-84
2023/10/03 03:20:57;;;;;;;9.60;7.72;;;;;;;;;;5111228;28;20198;-83
2023/10/03 03:23:30;;;;;;;11.98;8.27;;;;;;;;;;5111540;28;20255;-83
2023/10/03 03:26:12;;;;;;;14.07;8.98;;;;;;;;;;5111907;28;20243;-84
2023/10/03 03:28:40;;;;;;;15.75;8.65;;;;;;;;;;5111364;28;20717;-84
2023/10/03 03:31:17;;;;;;;13.77;8.73;;;;;;;;;;5110889;28;20209;-84
2023/10/03 03:33:46;;;;;;;12.23;8.43;;;;;;;;;;5110803;28;20657;-83
2023/10/03 03:36:17;;;;;;;13.50;8.10;;;;;;;;;;5111950;28;20193;-84
2023/10/03 03:38:45;;;;;;;13.38;8.02;;;;;;;;;;5114681;28;20201;-83
2023/10/03 03:41:13;;;;;;;12.73;8.38;;;;;;;;;;5115157;28;20248;-84
2023/10/03 03:43:42;;;;;;;10.70;7.82;;;;;;;;;;5115287;28;20224;-84
2023/10/03 03:46:09;;;;;;;13.05;8.00;;;;;;;;;;5114241;28;20206;-84
2023/10/03 03:48:38;;;;;;;10.77;7.57;;;;;;;;;;5114895;28;20259;-84
2023/10/03 03:51:07;;;;;;;13.88;8.45;;;;;;;;;;5114595;28;20190;-84
2023/10/03 03:53:34;;;;;;;14.30;8.00;;;;;;;;;;5114486;28;20201;-83
2023/10/03 03:56:04;;;;;;;14.95;8.13;;;;;;;;;;5114903;28;20221;-84
2023/10/03 03:58:32;;;;;;;13.93;7.80;;;;;;;;;;5114528;28;20624;-84
2023/10/03 04:01:00;;;;;;;15.52;7.78;;;;;;;;;;5113931;28;20378;-83
2023/10/03 04:03:34;;;;;;;10.82;6.93;;;;;;;;;;5114272;28;20193;-83
2023/10/03 04:06:02;;;;;;;11.57;7.20;;;;;;;;;;5114347;28;20198;-83
2023/10/03 04:08:29;;;;;;;15.45;7.75;;;;;;;;;;5114670;27;20198;-83
2023/10/03 04:10:58;;;;;;;17.73;7.85;;;;;;;;;;5114270;28;20250;-84
2023/10/03 04:13:27;;;;;;;10.98;6.90;;;;;;;;;;5114205;28;20194;-83
2023/10/03 04:15:55;;;;;;;13.20;8.07;;;;;;;;;;5113805;28;20302;-81
2023/10/03 04:18:22;;;;;;;12.35;7.40;;;;;;;;;;5114108;28;20236;-83
2023/10/03 04:20:50;;;;;;;11.57;7.28;;;;;;;;;;5106456;28;20259;-83
2023/10/03 04:23:17;;;;;;;14.57;7.63;;;;;;;;;;5101769;28;20209;-83
2023/10/03 04:25:44;;;;;;;11.60;7.00;;;;;;;;;;5093438;28;20211;-84
2023/10/03 04:28:16;;;;;;;11.32;6.60;;;;;;;;;;5093986;28;20590;-84
2023/10/03 04:30:45;;;;;;;12.52;7.35;;;;;;;;;;5092479;28;20232;-83
2023/10/03 04:33:17;;;;;;;10.20;7.18;;;;;;;;;;5094002;28;20190;-84
2023/10/03 04:35:44;;;;;;;17.67;6.97;;;;;;;;;;5093570;28;20559;-83
2023/10/03 04:38:16;;;;;;;12.98;6.50;;;;;;;;;;5093388;28;20194;-83
2023/10/03 04:40:45;;;;;;;11.52;7.20;;;;;;;;;;5093517;28;20198;-84
2023/10/03 04:43:12;;;;;;;11.57;6.88;;;;;;;;;;5094362;28;20285;-85
2023/10/03 04:45:40;;;;;;;12.45;7.43;;;;;;;;;;5105220;27;20237;-83
2023/10/03 04:48:10;;;;;;;17.05;6.82;;;;;;;;;;5097897;28;20229;-83
2023/10/03 04:50:39;;;;;;;11.13;7.05;;;;;;;;;;5113331;28;20241;-83
2023/10/03 04:53:08;;;;;;;9.95;6.35;;;;;;;;;;5108887;28;20212;-84
2023/10/03 04:55:35;;;;;;;14.63;6.75;;;;;;;;;;5093158;28;20202;-83
2023/10/03 04:58:02;;;;;;;16.55;6.93;;;;;;;;;;5093234;28;20285;-84
2023/10/03 05:00:30;;;;;;;10.85;6.00;;;;;;;;;;5092366;28;20234;-83
2023/10/03 05:02:57;;;;;;;5.80;4.20;;;;;;;;;;5093249;28;20195;-84
2023/10/03 05:05:27;;;;;;;7.18;3.60;;;;;;;;;;5092310;28;20194;-86
2023/10/03 05:07:56;;;;;;;4.78;3.05;;;;;;;;;;5092567;28;20226;-85
2023/10/03 05:10:24;;;;;;;5.88;3.13;;;;;;;;;;5092542;28;20590;-85
2023/10/03 05:12:52;;;;;;;5.80;3.38;;;;;;;;;;5092654;28;20737;-84
2023/10/03 05:15:19;;;;;;;4.50;3.25;;;;;;;;;;5092069;28;20253;-84
2023/10/03 05:17:47;;;;;;;7.35;3.15;;;;;;;;;;5096241;28;20206;-85
2023/10/03 05:20:16;;;;;;;5.38;3.10;;;;;;;;;;5112970;28;20289;-85
2023/10/03 05:22:46;;;;;;;5.43;3.17;;;;;;;;;;5112999;28;20194;-85
2023/10/03 05:25:17;;;;;;;6.22;3.20;;;;;;;;;;5112893;28;20207;-84
2023/10/03 05:27:44;;;;;;;6.28;3.20;;;;;;;;;;5112695;28;20329;-84
2023/10/03 05:30:14;;;;;;;6.65;3.40;;;;;;;;;;5112742;28;20786;-84
2023/10/03 05:32:42;;;;;;;6.05;2.85;;;;;;;;;;5112749;28;20201;-84
2023/10/03 05:35:11;;;;;;;8.15;3.50;;;;;;;;;;5113056;28;20250;-86
2023/10/03 05:37:39;;;;;;;5.00;2.63;;;;;;;;;;5112336;28;20193;-85
2023/10/03 05:40:15;;;;;;;6.60;2.70;;;;;;;;;;5113048;28;20196;-83
2023/10/03 05:42:43;;;;;;;6.70;2.60;;;;;;;;;;5111953;28;20190;-86
2023/10/03 05:45:12;;;;;;;8.57;3.00;;;;;;;;;;5112433;28;20194;-84
2023/10/03 05:47:39;;;;;;;8.73;2.70;;;;;;;;;;5112154;28;20259;-83
2023/10/03 05:50:09;;;;;;;9.68;3.10;;;;;;;;;;5108489;28;20786;-84
2023/10/03 05:52:36;;;;;;;9.95;3.08;;;;;;;;;;5108963;28;20190;-83
2023/10/03 05:55:04;;;;;;;6.30;2.90;;;;;;;;;;5110357;28;20234;-84
2023/10/03 05:57:34;;;;;;;7.63;3.20;;;;;;;;;;5110753;28;20194;-83
2023/10/03 06:00:01;;;;;;;6.60;2.90;;;;;;;;;;5111379;28;20197;-84
2023/10/03 06:02:28;;;;;;;8.77;3.35;;;;;;;;;;5112009;28;20197;-85
2023/10/03 06:04:56;;;;;;;6.60;3.15;;;;;;;;;;5105567;28;20230;-85
2023/10/03 06:07:23;;;;;;;10.57;3.10;;;;;;;;;;5106264;28;20202;-84
2023/10/03 06:09:52;;;;;;;10.70;3.15;;;;;;;;;;5101479;28;20244;-84
2023/10/03 06:12:19;;;;;;;9.60;3.03;;;;;;;;;;5106316;28;20220;-85
2023/10/03 06:14:47;;;;;;;8.85;3.00;;;;;;;;;;5100266;28;20290;-83
2023/10/03 06:17:17;;;;;;;10.32;2.92;;;;;;;;;;5111524;28;20233;-83
2023/10/03 06:19:45;;;;;;;7.57;3.00;;;;;;;;;;5111854;28;20194;-83
2023/10/03 06:22:13;;;;;;;8.68;3.22;;;;;;;;;;5107575;28;20284;-84
2023/10/03 06:24:41;;;;;;;8.50;3.55;;;;;;;;;;5107235;28;20290;-83
2023/10/03 06:27:10;;;;;;;10.70;3.00;;;;;;;;;;5109726;28;20197;-84
2023/10/03 06:29:39;;;;;;;9.95;3.38;;;;;;;;;;5111254;28;20248;-83
2023/10/03 06:32:07;;;;;;;9.45;3.38;;;;;;;;;;5109934;28;20228;-84
2023/10/03 06:34:34;;;;;;;10.23;3.72;;;;;;;;;;5109693;28;20232;-83
2023/10/03 06:37:04;;;;;;;14.68;3.67;;;;;;;;;;5095087;28;20667;-83
2023/10/03 06:39:31;;;;;;;11.95;3.83;;;;;;;;;;5101727;28;20675;-83
2023/10/03 06:41:58;;;;;;;8.15;3.38;;;;;;;;;;5099973;28;20239;-83
2023/10/03 06:44:26;;;;;;;13.35;4.38;;;;;;;;;;5100792;28;20543;-84
2023/10/03 06:46:53;;;;;;;13.40;4.13;;;;;;;;;;5103935;28;20650;-84
2023/10/03 06:49:23;;;;;;;11.93;3.72;;;;;;;;;;5105916;28;20186;-83
2023/10/03 06:51:56;;;;;;;10.68;3.30;;;;;;;;;;5106376;28;20198;-84
2023/10/03 06:54:24;;;;;;;11.27;3.80;;;;;;;;;;5106942;28;20197;-83
2023/10/03 06:56:51;;;;;;;11.35;3.33;;;;;;;;;;5109304;28;20229;-84
2023/10/03 06:59:19;;;;;;;12.38;3.25;;;;;;;;;;5111107;28;20220;-84
2023/10/03 07:01:46;;;;;;;8.32;3.13;;;;;;;;;;5111153;28;20278;-84
2023/10/03 07:04:13;;;;;;;10.30;3.47;;;;;;;;;;5111901;28;20247;-84
2023/10/03 07:06:43;;;;;;;10.65;3.55;;;;;;;;;;5111257;28;20248;-84
2023/10/03 07:09:11;;;;;;;11.48;4.05;;;;;;;;;;5111279;28;20288;-85
2023/10/03 07:11:38;;;;;;;6.65;3.15;;;;;;;;;;5114433;28;20646;-84
2023/10/03 07:14:05;;;;;;;9.52;3.30;;;;;;;;;;5121932;27;20225;-83
2023/10/03 07:16:37;;;;;;;10.10;3.35;;;;;;;;;;5131509;27;20705;-84
2023/10/03 07:19:05;;;;;;;7.93;2.90;;;;;;;;;;5115488;28;20210;-84
2023/10/03 07:21:34;;;;;;;9.73;3.50;;;;;;;;;;5115049;28;20233;-83
2023/10/03 07:24:02;;;;;;;6.88;3.08;;;;;;;;;;5114968;28;20275;-84
2023/10/03 07:26:30;;;;;;;9.75;3.53;;;;;;;;;;5115384;28;20186;-85
2023/10/03 07:29:00;;;;;;;7.55;2.92;;;;;;;;;;5115380;28;20267;-84
2023/10/03 07:31:27;;;;;;;7.68;3.05;;;;;;;;;;5124848;27;20632;-84
2023/10/03 07:33:56;;;;;;;8.80;3.47;;;;;;;;;;5127942;27;20658;-84
2023/10/03 07:36:23;;;;;;;7.15;2.80;;;;;;;;;;5115308;28;20236;-85
2023/10/03 07:38:50;;;;;;;8.30;3.13;;;;;;;;;;5114801;28;20197;-85
2023/10/03 07:41:21;;;;;;;7.03;3.00;;;;;;;;;;5115142;28;20228;-84
2023/10/03 07:43:48;;;;;;;7.70;3.05;;;;;;;;;;5114951;27;20287;-86
2023/10/03 07:46:20;;;;;;;6.57;3.13;;;;;;;;;;5115218;28;20194;-85
2023/10/03 07:48:48;;;;;;;10.25;3.22;;;;;;;;;;5115372;27;20288;-85
2023/10/03 07:51:19;;;;;;;9.77;3.25;;;;;;;;;;5113760;28;20622;-85
2023/10/03 07:53:46;;;;;;;7.80;3.35;;;;;;;;;;5112008;28;20197;-85
2023/10/03 07:56:25;;;;;;;8.25;3.15;;;;;;;;;;5113882;28;20293;-85
2023/10/03 07:58:54;;;;;;;7.82;3.38;;;;;;;;;;5115120;28;20194;-86
2023/10/03 08:01:24;;;;;;;7.60;3.13;;;;;;;;;;5115190;28;20235;-86
2023/10/03 08:03:52;;;;;;;5.90;2.88;;;;;;;;;;5115098;28;20194;-86
2023/10/03 08:06:21;;;;;;;7.85;3.22;;;;;;;;;;5115022;28;20186;-85
2023/10/03 08:08:48;;;;;;;7.82;3.10;;;;;;;;;;5114466;28;20194;-86
2023/10/03 08:11:15;;;;;;;10.15;3.08;;;;;;;;;;5114600;28;20233;-86
2023/10/03 08:13:44;;;;;;;6.50;3.40;;;;;;;;;;5114620;28;20210;-86
2023/10/03 08:16:14;;;;;;;6.80;3.33;;;;;;;;;;5114828;28;20264;-87
2023/10/03 08:18:46;;;;;;;6.90;3.20;;;;;;;;;;5114627;28;20223;-86
2023/10/03 08:21:13;;;;;;;7.05;3.10;;;;;;;;;;5114386;28;20285;-86
2023/10/03 08:23:41;;;;;;;5.53;3.00;;;;;;;;;;5113298;28;20258;-86
2023/10/03 08:26:08;;;;;;;9.68;2.92;;;;;;;;;;5114727;28;20684;-87
2023/10/03 08:28:38;;;;;;;6.97;3.20;;;;;;;;;;5114848;28;20289;-87
2023/10/03 08:31:08;;;;;;;10.25;3.47;;;;;;;;;;5114193;28;20274;-86
2023/10/03 08:33:37;;;;;;;5.35;3.00;;;;;;;;;;5114502;28;20181;-86
2023/10/03 08:36:14;;;;;;;7.90;2.80;;;;;;;;;;5114415;28;20276;-86
2023/10/03 08:38:43;;;;;;;6.45;2.83;;;;;;;;;;5114302;28;20204;-86
2023/10/03 08:41:12;;;;;;;5.30;2.58;;;;;;;;;;5114021;28;20626;-86
2023/10/03 08:43:40;;;;;;;8.93;2.78;;;;;;;;;;5114178;28;20289;-86
2023/10/03 08:46:13;;;;;;;6.78;2.63;;;;;;;;;;5114106;28;20247;-84
2023/10/03 08:48:43;;;;;;;3.65;1.95;;;;;;;;;;5114127;28;20202;-84
2023/10/03 08:51:13;;;;;;;4.63;1.92;;;;;;;;;;5113170;28;20690;-85
2023/10/03 08:53:41;;;;;;;3.63;1.83;;;;;;;;;;5114112;28;20202;-86
2023/10/03 08:56:08;;;;;;;3.92;1.50;;;;;;;;;;5114221;28;20197;-86
2023/10/03 08:58:39;;;;;;;6.63;1.77;;;;;;;;;;5114004;28;20284;-85
2023/10/03 09:01:07;;;;;;;4.18;1.50;;;;;;;;;;5113779;28;20200;-85
2023/10/03 09:03:46;;;;;;;5.10;1.50;;;;;;;;;;5113995;28;20584;-85
2023/10/03 09:06:19;;;;;;;3.38;1.38;;;;;;;;;;5113672;28;20201;-85
2023/10/03 09:08:47;;;;;;;6.95;1.52;;;;;;;;;;5113678;28;20197;-87
2023/10/03 09:11:14;;;;;;;4.22;1.30;;;;;;;;;;5113654;28;20225;-85
2023/10/03 09:13:45;;;;;;;4.97;1.48;;;;;;;;;;5113537;28;20206;-86
2023/10/03 09:16:15;;;;;;;3.28;1.00;;;;;;;;;;5113044;28;20236;-86
2023/10/03 09:18:43;;;;;;;4.20;1.17;;;;;;;;;;5113501;28;20197;-87
2023/10/03 09:21:15;;;;;;;3.55;1.15;;;;;;;;;;5113334;28;20668;-86
2023/10/03 09:24:09;;;;;;;3.75;1.48;;;;;;;;;;5113289;28;20194;-86
2023/10/03 09:26:51;;;;;;;3.22;1.10;;;;;;;;;;5113403;28;20650;-86
2023/10/03 09:29:30;;;;;;;3.70;1.00;;;;;;;;;;5113165;28;20231;-86
2023/10/03 09:32:00;;;;;;;6.00;1.50;;;;;;;;;;5113227;28;20606;-83
2023/10/03 09:34:32;;;;;;;4.22;1.08;;;;;;;;;;5111866;28;20200;-85
2023/10/03 09:37:02;;;;;;;5.72;1.30;;;;;;;;;;5112961;28;20201;-85
2023/10/03 09:39:30;;;;;;;3.10;1.05;;;;;;;;;;5113273;28;20229;-86
2023/10/03 09:41:58;;;;;;;1.90;0.90;;;;;;;;;;5112891;28;20202;-84
2023/10/03 09:44:33;;;;;;;3.97;1.10;;;;;;;;;;5112782;28;20730;-84
2023/10/03 09:47:06;;;;;;;4.13;1.00;;;;;;;;;;5112672;28;20197;-84
2023/10/03 09:49:38;;;;;;;4.97;1.30;;;;;;;;;;5112483;28;20197;-84
2023/10/03 09:52:09;;;;;;;2.47;0.90;;;;;;;;;;5112333;28;20221;-85
2023/10/03 09:54:37;;;;;;;4.00;1.25;;;;;;;;;;5113268;28;20202;-85
2023/10/03 09:57:16;;;;;;;5.07;1.30;;;;;;;;;;5112881;27;20201;-84
2023/10/03 09:59:46;;;;;;;5.63;1.38;;;;;;;;;;5112761;28;20310;-85
2023/10/03 10:02:14;;;;;;;3.50;1.10;;;;;;;;;;5112605;28;20197;-84
2023/10/03 10:04:46;;;;;;;5.70;1.40;;;;;;;;;;5112200;28;20293;-84
2023/10/03 10:07:27;;;;;;;2.63;1.15;;;;;;;;;;5112507;28;20679;-85
2023/10/03 10:10:07;;;;;;;2.28;1.20;;;;;;;;;;5112773;28;20203;-84
2023/10/03 10:12:37;;;;;;;3.85;1.42;;;;;;;;;;5112519;28;20732;-84
2023/10/03 10:15:17;;;;;;;3.03;1.27;;;;;;;;;;5112398;28;20254;-83
2023/10/03 10:17:46;;;;;;;3.72;1.20;;;;;;;;;;5111746;28;20216;-82
2023/10/03 10:20:17;;;;;;;6.50;1.58;;;;;;;;;;5112224;28;20256;-84
2023/10/03 10:23:06;;;;;;;3.35;1.35;;;;;;;;;;5112584;28;20212;-85
2023/10/03 10:25:38;;;;;;;4.07;1.30;;;;;;;;;;5112565;28;20202;-84
2023/10/03 10:28:06;;;;;;;5.13;1.50;;;;;;;;;;5112212;28;20615;-83
2023/10/03 10:30:33;;;;;;;4.40;1.52;;;;;;;;;;5112085;28;20269;-84
2023/10/03 10:33:20;;;;;;;4.47;1.27;;;;;;;;;;5111530;28;20206;-85
2023/10/03 10:36:03;;;;;;;3.33;1.10;;;;;;;;;;5112152;28;20293;-84
2023/10/03 10:38:47;;;;;;;3.05;1.50;;;;;;;;;;5112250;28;20189;-84
2023/10/03 10:41:26;;;;;;;4.35;1.25;;;;;;;;;;5111804;28;20197;-83
2023/10/03 10:44:06;;;;;;;7.10;1.77;;;;;;;;;;5112194;28;20254;-85
2023/10/03 10:46:35;;;;;;;4.85;1.20;;;;;;;;;;5115441;28;20221;-86
2023/10/03 10:49:06;;;;;;;7.15;1.65;;;;;;;;;;5116517;28;20562;-84
2023/10/03 10:51:36;;;;;;;4.50;1.48;;;;;;;;;;5116121;28;20221;-84
2023/10/03 10:54:04;;;;;;;4.38;1.02;;;;;;;;;;5116358;28;20206;-84
2023/10/03 10:56:33;;;;;;;2.78;1.20;;;;;;;;;;5116113;28;20194;-86
2023/10/03 10:59:05;;;;;;;2.85;1.38;;;;;;;;;;5116220;28;20288;-85
2023/10/03 11:01:39;;;;;;;3.88;1.33;;;;;;;;;;5115637;28;20229;-84
2023/10/03 11:04:06;;;;;;;3.72;1.55;;;;;;;;;;5116210;28;20194;-84
2023/10/03 11:06:35;;;;;;;4.05;1.30;;;;;;;;;;5116008;28;20232;-85
2023/10/03 11:09:03;;;;;;;4.13;1.20;;;;;;;;;;5115742;28;20198;-84
2023/10/03 11:11:39;;;;;;;3.25;1.25;;;;;;;;;;5115831;28;20225;-84
2023/10/03 11:14:07;;;;;;;4.30;1.40;;;;;;;;;;5115479;28;20292;-84
2023/10/03 11:16:34;;;;;;;5.05;1.30;;;;;;;;;;5115323;28;20233;-84
2023/10/03 11:19:02;;;;;;;3.10;1.20;;;;;;;;;;5115367;28;20210;-85
2023/10/03 11:21:30;;;;;;;5.20;1.50;;;;;;;;;;5115817;28;20289;-84
2023/10/03 11:24:11;;;;;;;3.45;1.27;;;;;;;;;;5115953;28;20238;-83
2023/10/03 11:26:48;;;;;;;5.95;1.52;;;;;;;;;;5116081;28;20258;-86
2023/10/03 11:29:17;;;;;;;3.83;1.40;;;;;;;;;;5115439;28;20196;-84
2023/10/03 11:31:45;;;;;;;3.60;1.20;;;;;;;;;;5115020;28;20316;-85
2023/10/03 11:34:29;;;;;;;3.33;1.35;;;;;;;;;;5115345;28;20198;-84
2023/10/03 11:36:57;;;;;;;2.92;1.30;;;;;;;;;;5115652;28;20726;-84
2023/10/03 11:39:26;;;;;;;3.53;1.13;;;;;;;;;;5115445;28;20284;-85
2023/10/03 11:41:53;;;;;;;3.88;1.30;;;;;;;;;;5115758;28;20280;-84
2023/10/03 11:44:21;;;;;;;3.45;1.20;;;;;;;;;;5115134;28;20209;-85
2023/10/03 11:46:48;;;;;;;3.10;1.50;;;;;;;;;;5114875;28;20293;-84
2023/10/03 11:49:16;;;;;;;3.05;1.25;;;;;;;;;;5115263;28;20231;-84
2023/10/03 11:51:44;;;;;;;2.72;1.13;;;;;;;;;;5115071;28;20255;-84
2023/10/03 11:54:11;;;;;;;2.50;1.30;;;;;;;;;;5115468;28;20266;-85
2023/10/03 11:56:46;;;;;;;4.20;1.25;;;;;;;;;;5114311;28;20198;-85
2023/10/03 11:59:14;;;;;;;2.55;1.20;;;;;;;;;;5114729;28;20197;-85
2023/10/03 12:01:43;;;;;;;2.80;1.20;;;;;;;;;;5115258;28;20228;-85
2023/10/03 12:04:10;;;;;;;2.83;1.02;;;;;;;;;;5114860;28;20278;-84
2023/10/03 12:06:38;;;;;;;3.45;1.30;;;;;;;;;;5114996;28;20274;-85
2023/10/03 12:09:09;;;;;;;4.15;1.20;;;;;;;;;;5114831;28;20197;-84
2023/10/03 12:11:36;;;;;;;3.30;1.27;;;;;;;;;;5114391;28;20225;-85
2023/10/03 12:14:05;;;;;;;2.45;1.15;;;;;;;;;;5114437;28;20206;-85
2023/10/03 12:16:32;;;;;;;3.03;1.00;;;;;;;;;;5114684;28;20268;-85
2023/10/03 12:19:00;;;;;;;4.85;1.20;;;;;;;;;;5114729;28;20244;-85
2023/10/03 12:21:27;;;;;;;2.85;1.30;;;;;;;;;;5114614;28;20250;-85
2023/10/03 12:23:54;;;;;;;2.60;1.10;;;;;;;;;;5115025;28;20258;-85
2023/10/03 12:26:22;;;;;;;3.88;1.30;;;;;;;;;;5114818;28;20194;-84
2023/10/03 12:28:50;;;;;;;3.85;1.20;;;;;;;;;;5114173;28;20314;-85
2023/10/03 12:31:25;;;;;;;3.17;1.10;;;;;;;;;;5114156;28;20197;-84
2023/10/03 12:33:52;;;;;;;5.78;1.33;;;;;;;;;;5114494;28;20650;-85
2023/10/03 12:36:20;;;;;;;2.20;0.90;;;;;;;;;;5114189;28;20206;-86
2023/10/03 12:38:48;;;;;;;16.23;2.40;;;;;;;;;;5114545;28;20642;-84
2023/10/03 12:41:15;;;;;;;12.43;1.80;;;;;;;;;;5114017;28;20318;-84
2023/10/03 12:43:47;;;;;;;3.28;1.10;;;;;;;;;;5114048;28;20217;-84
2023/10/03 12:46:14;;;;;;;15.18;1.73;;;;;;;;;;5114053;28;20216;-84
2023/10/03 12:48:43;;;;;;;2.90;0.90;;;;;;;;;;5114014;28;20221;-83
2023/10/03 12:51:10;;;;;;;2.72;0.70;;;;;;;;;;5113743;28;20364;-83
2023/10/03 12:53:37;;;;;;;6.30;1.27;;;;;;;;;;5113665;28;20261;-84
2023/10/03 12:56:08;;;;;;;2.88;0.93;;;;;;;;;;5114170;28;20228;-83
2023/10/03 12:58:34;;;;;;;2.58;1.00;;;;;;;;;;5113782;28;20225;-83
2023/10/03 13:01:01;;;;;;;4.18;0.90;;;;;;;;;;5113552;28;20686;-83
2023/10/03 13:03:29;;;;;;;2.45;0.82;;;;;;;;;;5113941;28;20254;-83
2023/10/03 13:05:58;;;;;;;2.15;0.90;;;;;;;;;;5113477;28;20197;-83
2023/10/03 13:08:26;;;;;;;2.03;0.70;;;;;;;;;;5113437;28;20798;-85
2023/10/03 13:10:54;;;;;;;4.15;1.15;;;;;;;;;;5113246;28;20673;-85
2023/10/03 13:13:21;;;;;;;2.67;0.90;;;;;;;;;;5113271;28;20214;-85
2023/10/03 13:15:49;;;;;;;3.08;0.90;;;;;;;;;;5113302;28;20286;-84
2023/10/03 13:18:17;;;;;;;4.50;0.90;;;;;;;;;;5113047;28;20685;-85
2023/10/03 13:20:45;;;;;;;4.45;1.00;;;;;;;;;;5113254;28;20247;-85
2023/10/03 13:23:14;;;;;;;2.78;0.90;;;;;;;;;;5112845;28;20205;-85
2023/10/03 13:25:41;;;;;;;3.53;1.15;;;;;;;;;;5112684;28;20680;-85
2023/10/03 13:28:11;;;;;;;5.28;1.30;;;;;;;;;;5113200;28;20650;-86
2023/10/03 13:30:38;;;;;;;2.65;0.80;;;;;;;;;;5113141;28;20201;-84
2023/10/03 13:33:06;;;;;;;3.33;1.20;;;;;;;;;;5113169;28;20229;-83
2023/10/03 13:35:34;;;;;;;3.33;1.10;;;;;;;;;;5113179;28;20612;-83
2023/10/03 13:38:03;;;;;;;3.67;0.93;;;;;;;;;;5113450;28;20193;-84
2023/10/03 13:40:31;;;;;;;2.28;1.10;;;;;;;;;;5112694;28;20225;-83
2023/10/03 13:43:00;;;;;;;2.42;1.02;;;;;;;;;;5112295;28;20198;-83
2023/10/03 13:45:30;;;;;;;3.53;1.00;;;;;;;;;;5112657;28;20685;-83
2023/10/03 13:47:59;;;;;;;5.38;1.17;;;;;;;;;;5113378;28;20194;-84
2023/10/03 13:50:26;;;;;;;2.42;0.90;;;;;;;;;;5112565;28;20194;-85
2023/10/03 13:52:55;;;;;;;1.73;0.90;;;;;;;;;;5112574;28;20221;-86
2023/10/03 13:55:26;;;;;;;2.63;0.80;;;;;;;;;;5112127;28;20292;-86
2023/10/03 13:57:55;;;;;;;5.25;1.20;;;;;;;;;;5112837;28;20186;-86
2023/10/03 14:00:23;;;;;;;3.58;1.13;;;;;;;;;;5112515;28;20201;-87
2023/10/03 14:02:50;;;;;;;3.95;0.93;;;;;;;;;;5112823;28;20190;-85
2023/10/03 14:05:20;;;;;;;5.40;1.67;;;;;;;;;;5112627;28;20871;-85
2023/10/03 14:07:48;;;;;;;4.82;1.15;;;;;;;;;;5112541;27;20630;-85
2023/10/03 14:10:20;;;;;;;3.85;1.42;;;;;;;;;;5112323;28;20254;-86
2023/10/03 14:12:48;;;;;;;3.25;1.10;;;;;;;;;;5112145;28;20308;-86
2023/10/03 14:15:20;;;;;;;2.47;1.30;;;;;;;;;;5112252;28;20253;-87
2023/10/03 14:17:47;;;;;;;4.68;1.20;;;;;;;;;;5111891;28;20193;-85
2023/10/03 14:20:16;;;;;;;4.25;1.15;;;;;;;;;;5111989;28;20254;-85
2023/10/03 14:22:43;;;;;;;3.13;1.10;;;;;;;;;;5112246;28;20578;-86
2023/10/03 14:25:12;;;;;;;3.35;1.20;;;;;;;;;;5112066;28;20288;-85
2023/10/03 14:27:40;;;;;;;3.42;1.38;;;;;;;;;;5111934;28;20609;-86
2023/10/03 14:30:08;;;;;;;4.03;0.90;;;;;;;;;;5111759;28;20194;-84
2023/10/03 14:32:37;;;;;;;4.22;1.00;;;;;;;;;;5112219;28;20233;-85
2023/10/03 14:35:05;;;;;;;3.60;1.10;;;;;;;;;;5111914;28;20225;-84
2023/10/03 14:37:35;;;;;;;3.60;1.02;;;;;;;;;;5112153;28;20553;-85
2023/10/03 14:40:08;;;;;;;3.58;0.98;;;;;;;;;;5111542;28;20206;-85
2023/10/03 14:42:36;;;;;;;2.55;1.00;;;;;;;;;;5111756;28;20737;-84
2023/10/03 14:45:04;;;;;;;2.17;0.70;;;;;;;;;;5112072;28;20202;-85
2023/10/03 14:47:31;;;;;;;2.65;0.85;;;;;;;;;;5111869;28;20247;-85